createdAt,value
2016-08-01T00:00:35.063Z,99.99
2016-08-01T00:01:35.063Z,99.99
2016-08-01T00:02:35.061Z,99.99
2016-08-01T00:03:36.580Z,99.99
2016-08-01T00:04:35.057Z,99.99
2016-08-01T00:05:35.212Z,99.99
2016-08-01T00:06:35.262Z,99.99
2016-08-01T00:07:35.052Z,99.99
2016-08-01T00:08:35.541Z,99.99
2016-08-01T00:09:35.046Z,99.99
2016-08-01T00:10:35.124Z,99.99
2016-08-01T00:11:35.039Z,99.99
2016-08-01T00:12:35.043Z,99.99
2016-08-01T00:13:36.551Z,99.99
2016-08-01T00:14:35.385Z,99.99
2016-08-01T00:15:36.120Z,99.99
2016-08-01T00:16:35.034Z,99.99
2016-08-01T00:17:35.326Z,99.99
2016-08-01T00:18:35.026Z,99.99
2016-08-01T00:19:35.024Z,99.99
2016-08-01T00:20:35.103Z,99.99
2016-08-01T00:21:35.023Z,99.99
2016-08-01T00:22:35.020Z,99.99
2016-08-01T00:23:35.014Z,99.99
2016-08-01T00:24:35.015Z,99.99
2016-08-01T00:25:35.014Z,99.99
2016-08-01T00:26:35.012Z,99.99
2016-08-01T00:27:35.013Z,99.99
2016-08-01T00:28:35.006Z,99.99
2016-08-01T00:29:35.006Z,99.99
2016-08-01T00:30:35.002Z,99.99
2016-08-01T00:31:34.994Z,99.99
2016-08-01T00:32:34.995Z,99.99
2016-08-01T00:33:34.995Z,99.99
2016-08-01T00:34:34.996Z,99.99
2016-08-01T00:35:34.989Z,99.99
2016-08-01T00:36:35.201Z,99.99
2016-08-01T00:37:34.980Z,99.99
2016-08-01T00:38:34.982Z,99.99
2016-08-01T00:39:34.975Z,99.99
2016-08-01T00:40:34.978Z,99.99
2016-08-01T00:41:34.970Z,99.99
2016-08-01T00:42:34.976Z,99.99
2016-08-01T00:43:34.964Z,99.99
2016-08-01T00:44:34.958Z,99.99
2016-08-01T00:45:36.060Z,99.99
2016-08-01T00:46:35.060Z,99.99
2016-08-01T00:47:34.959Z,99.99
2016-08-01T00:49:34.952Z,99.99
2016-08-01T00:50:34.950Z,99.99
2016-08-01T00:51:34.943Z,99.99
2016-08-01T00:52:34.992Z,99.99
2016-08-01T00:53:34.941Z,99.99
2016-08-01T00:54:34.934Z,99.99
2016-08-01T00:55:49.848Z,99.99
2016-08-01T00:56:34.928Z,99.99
2016-08-01T00:57:34.926Z,99.99
2016-08-01T00:58:34.924Z,99.99
2016-08-01T00:59:34.916Z,99.99
2016-08-01T01:00:35.317Z,99.99
2016-08-01T01:01:34.914Z,99.99
2016-08-01T01:02:34.908Z,99.99
2016-08-01T01:04:34.905Z,99.99
2016-08-01T01:05:34.902Z,99.99
2016-08-01T01:06:34.902Z,99.99
2016-08-01T01:07:34.895Z,99.99
2016-08-01T01:08:34.892Z,99.99
2016-08-01T01:09:34.888Z,99.99
2016-08-01T01:10:34.881Z,99.99
2016-08-01T01:11:34.882Z,99.99
2016-08-01T01:12:34.879Z,99.99
2016-08-01T01:13:34.875Z,99.99
2016-08-01T01:14:34.884Z,99.99
2016-08-01T01:15:34.870Z,99.99
2016-08-01T01:16:34.865Z,99.99
2016-08-01T01:17:34.864Z,99.99
2016-08-01T01:19:34.855Z,99.99
2016-08-01T01:20:34.851Z,99.99
2016-08-01T01:21:34.849Z,99.99
2016-08-01T01:22:36.423Z,99.99
2016-08-01T01:23:36.227Z,99.99
2016-08-01T01:24:35.291Z,99.99
2016-08-01T01:25:35.007Z,99.99
2016-08-01T01:26:34.832Z,99.99
2016-08-01T01:27:34.832Z,99.99
2016-08-01T01:28:34.823Z,99.99
2016-08-01T01:29:34.824Z,99.99
2016-08-01T01:30:34.819Z,99.99
2016-08-01T01:31:34.816Z,99.99
2016-08-01T01:32:34.811Z,99.99
2016-08-01T01:34:34.807Z,99.99
2016-08-01T01:35:34.802Z,99.99
2016-08-01T01:36:35.452Z,99.99
2016-08-01T01:37:34.793Z,99.99
2016-08-01T01:38:34.787Z,99.99
2016-08-01T01:39:34.789Z,99.99
2016-08-01T01:40:34.789Z,99.99
2016-08-01T01:41:34.784Z,99.99
2016-08-01T01:42:34.780Z,99.99
2016-08-01T01:43:34.772Z,99.99
2016-08-01T01:44:34.770Z,99.99
2016-08-01T01:45:34.765Z,99.99
2016-08-01T01:46:34.760Z,99.99
2016-08-01T01:47:34.760Z,99.99
2016-08-01T01:49:34.755Z,99.99
2016-08-01T01:50:34.748Z,99.99
2016-08-01T01:51:34.745Z,99.99
2016-08-01T01:52:34.746Z,99.99
2016-08-01T01:53:34.736Z,99.99
2016-08-01T01:54:34.734Z,99.99
2016-08-01T01:55:34.731Z,99.99
2016-08-01T01:56:34.730Z,99.99
2016-08-01T01:57:34.729Z,99.99
2016-08-01T01:58:34.721Z,99.99
2016-08-01T01:59:34.716Z,99.99
2016-08-01T02:00:34.719Z,99.99
2016-08-01T02:01:34.708Z,99.99
2016-08-01T02:02:34.706Z,99.99
2016-08-01T02:03:34.705Z,99.99
2016-08-01T02:04:49.615Z,99.99
2016-08-01T02:05:34.700Z,99.99
2016-08-01T02:06:34.694Z,99.99
2016-08-01T02:07:34.691Z,99.99
2016-08-01T02:08:34.685Z,99.99
2016-08-01T02:09:34.836Z,99.99
2016-08-01T02:10:34.680Z,99.99
2016-08-01T02:11:34.679Z,99.99
2016-08-01T02:13:34.668Z,99.99
2016-08-01T02:14:34.663Z,99.99
2016-08-01T02:15:34.661Z,99.99
2016-08-01T02:16:34.659Z,99.99
2016-08-01T02:17:35.201Z,99.99
2016-08-01T02:18:34.648Z,99.99
2016-08-01T02:19:34.643Z,99.99
2016-08-01T02:20:34.639Z,99.99
2016-08-01T02:21:34.639Z,99.99
2016-08-01T02:22:35.328Z,99.99
2016-08-01T02:23:34.630Z,99.99
2016-08-01T02:24:34.630Z,99.99
2016-08-01T02:25:34.624Z,99.99
2016-08-01T02:26:34.620Z,99.99
2016-08-01T02:27:34.610Z,99.99
2016-08-01T02:28:34.612Z,99.99
2016-08-01T02:29:34.608Z,99.99
2016-08-01T02:30:34.604Z,99.99
2016-08-01T02:31:34.602Z,99.99
2016-08-01T02:32:34.594Z,99.99
2016-08-01T02:33:34.593Z,99.99
2016-08-01T02:34:34.591Z,99.99
2016-08-01T02:35:34.586Z,99.99
2016-08-01T02:36:34.579Z,99.99
2016-08-01T02:37:34.575Z,99.99
2016-08-01T02:38:34.570Z,99.99
2016-08-01T02:39:34.569Z,99.99
2016-08-01T02:40:34.568Z,99.99
2016-08-01T02:41:34.598Z,99.99
2016-08-01T02:42:34.603Z,99.99
2016-08-01T02:43:35.203Z,99.99
2016-08-01T02:44:34.553Z,99.99
2016-08-01T02:45:34.551Z,99.99
2016-08-01T02:46:34.545Z,99.99
2016-08-01T02:47:34.603Z,99.99
2016-08-01T02:48:34.538Z,99.99
2016-08-01T02:49:35.787Z,99.99
2016-08-01T02:51:35.404Z,99.99
2016-08-01T02:52:34.521Z,99.99
2016-08-01T02:53:35.152Z,99.99
2016-08-01T02:54:34.515Z,99.99
2016-08-01T02:55:34.554Z,99.99
2016-08-01T02:56:34.506Z,99.99
2016-08-01T02:57:34.502Z,99.99
2016-08-01T02:58:34.503Z,99.99
2016-08-01T02:59:34.491Z,99.99
2016-08-01T03:00:34.490Z,99.99
2016-08-01T03:01:34.491Z,99.99
2016-08-01T03:02:34.482Z,99.99
2016-08-01T03:03:34.481Z,99.99
2016-08-01T03:04:34.478Z,99.99
2016-08-01T03:05:34.467Z,99.99
2016-08-01T03:06:34.469Z,99.99
2016-08-01T03:07:35.159Z,99.99
2016-08-01T03:08:34.460Z,99.99
2016-08-01T03:09:34.455Z,99.99
2016-08-01T03:10:34.455Z,99.99
2016-08-01T03:11:34.449Z,99.99
2016-08-01T03:12:34.444Z,99.99
2016-08-01T03:13:34.442Z,99.99
2016-08-01T03:14:34.444Z,99.99
2016-08-01T03:15:34.436Z,99.99
2016-08-01T03:16:34.430Z,99.99
2016-08-01T03:17:34.433Z,99.99
2016-08-01T03:18:34.424Z,99.99
2016-08-01T03:19:34.430Z,99.99
2016-08-01T03:20:34.415Z,99.99
2016-08-01T03:21:49.326Z,99.99
2016-08-01T03:22:34.406Z,99.99
2016-08-01T03:23:34.401Z,99.99
2016-08-01T03:24:34.496Z,99.99
2016-08-01T03:25:35.201Z,99.99
2016-08-01T03:26:34.441Z,99.99
2016-08-01T03:27:34.392Z,99.99
2016-08-01T03:28:34.391Z,99.99
2016-08-01T03:29:34.387Z,99.99
2016-08-01T03:30:34.382Z,99.99
2016-08-01T03:31:34.373Z,99.99
2016-08-01T03:32:34.726Z,99.99
2016-08-01T03:33:34.372Z,99.99
2016-08-01T03:35:35.063Z,99.99
2016-08-01T03:36:34.381Z,99.99
2016-08-01T03:37:34.656Z,99.99
2016-08-01T03:38:34.368Z,99.99
2016-08-01T03:39:34.353Z,99.99
2016-08-01T03:40:34.348Z,99.99
2016-08-01T03:41:34.347Z,99.99
2016-08-01T03:42:34.344Z,99.99
2016-08-01T03:43:34.337Z,99.99
2016-08-01T03:44:34.336Z,99.99
2016-08-01T03:45:34.335Z,99.99
2016-08-01T03:46:34.329Z,99.99
2016-08-01T03:47:34.329Z,99.99
2016-08-01T03:48:34.326Z,99.99
2016-08-01T03:49:34.321Z,99.99
2016-08-01T03:50:34.321Z,99.99
2016-08-01T03:51:34.314Z,99.99
2016-08-01T03:52:34.310Z,99.99
2016-08-01T03:53:34.309Z,99.99
2016-08-01T03:54:34.304Z,99.99
2016-08-01T03:55:34.312Z,99.99
2016-08-01T03:56:34.302Z,99.99
2016-08-01T03:57:34.295Z,99.99
2016-08-01T03:58:35.239Z,99.99
2016-08-01T03:59:34.287Z,99.99
2016-08-01T04:00:35.813Z,99.99
2016-08-01T04:01:35.279Z,99.99
2016-08-01T04:02:34.350Z,99.99
2016-08-01T04:03:34.363Z,99.99
2016-08-01T04:04:34.280Z,99.99
2016-08-01T04:05:34.272Z,99.99
2016-08-01T04:06:34.266Z,99.99
2016-08-01T04:07:34.265Z,99.99
2016-08-01T04:08:35.781Z,99.99
2016-08-01T04:09:34.261Z,99.99
2016-08-01T04:10:34.261Z,99.99
2016-08-01T04:11:34.257Z,99.99
2016-08-01T04:12:34.251Z,99.99
2016-08-01T04:13:34.306Z,99.99
2016-08-01T04:14:34.249Z,99.99
2016-08-01T04:15:34.240Z,99.99
2016-08-01T04:16:34.236Z,99.99
2016-08-01T04:17:34.235Z,99.99
2016-08-01T04:18:34.235Z,99.99
2016-08-01T04:19:34.229Z,99.99
2016-08-01T04:20:34.231Z,99.99
2016-08-01T04:21:34.229Z,99.99
2016-08-01T04:22:34.227Z,99.99
2016-08-01T04:23:34.224Z,99.99
2016-08-01T04:24:34.223Z,99.99
2016-08-01T04:25:34.217Z,99.99
2016-08-01T04:26:34.218Z,99.99
2016-08-01T04:27:34.212Z,99.99
2016-08-01T04:28:34.213Z,99.99
2016-08-01T04:29:34.209Z,99.99
2016-08-01T04:30:34.202Z,99.99
2016-08-01T04:31:34.202Z,99.99
2016-08-01T04:32:34.197Z,99.99
2016-08-01T04:33:34.199Z,99.99
2016-08-01T04:34:34.197Z,99.99
2016-08-01T04:35:34.188Z,99.99
2016-08-01T04:36:34.188Z,99.99
2016-08-01T04:37:34.185Z,99.99
2016-08-01T04:38:34.183Z,99.99
2016-08-01T04:39:34.176Z,99.99
2016-08-01T04:40:35.329Z,99.99
2016-08-01T04:41:34.184Z,99.99
2016-08-01T04:42:34.925Z,99.99
2016-08-01T04:43:34.174Z,99.99
2016-08-01T04:44:34.172Z,99.99
2016-08-01T04:45:34.169Z,99.99
2016-08-01T04:46:34.161Z,99.99
2016-08-01T04:47:34.157Z,99.99
2016-08-01T04:48:34.161Z,99.99
2016-08-01T04:49:34.858Z,99.99
2016-08-01T04:50:34.158Z,99.99
2016-08-01T04:51:34.150Z,99.99
2016-08-01T04:52:34.147Z,99.99
2016-08-01T04:53:34.396Z,99.99
2016-08-01T04:54:34.654Z,99.99
2016-08-01T04:55:34.143Z,99.99
2016-08-01T04:56:34.148Z,99.99
2016-08-01T04:57:34.142Z,99.99
2016-08-01T04:58:34.145Z,99.99
2016-08-01T04:59:34.138Z,99.99
2016-08-01T05:00:34.141Z,99.99
2016-08-01T05:01:34.137Z,99.99
2016-08-01T05:02:34.131Z,99.99
2016-08-01T05:03:34.136Z,99.99
2016-08-01T05:04:34.137Z,99.99
2016-08-01T05:05:34.136Z,99.99
2016-08-01T05:06:34.144Z,99.99
2016-08-01T05:07:34.135Z,99.99
2016-08-01T05:08:34.136Z,99.99
2016-08-01T05:09:34.141Z,99.99
2016-08-01T05:10:34.144Z,99.99
2016-08-01T05:11:34.142Z,99.99
2016-08-01T05:12:34.146Z,99.99
2016-08-01T05:13:34.152Z,99.99
2016-08-01T05:14:34.151Z,99.99
2016-08-01T05:15:34.154Z,99.99
2016-08-01T05:16:34.161Z,99.99
2016-08-01T05:17:35.431Z,99.99
2016-08-01T05:18:34.620Z,99.99
2016-08-01T05:19:35.060Z,99.99
2016-08-01T05:20:35.046Z,99.99
2016-08-01T05:21:34.177Z,99.99
2016-08-01T05:22:34.309Z,99.99
2016-08-01T05:23:34.188Z,99.99
2016-08-01T05:24:34.200Z,99.99
2016-08-01T05:25:35.369Z,99.99
2016-08-01T05:26:34.219Z,99.99
2016-08-01T05:27:34.208Z,99.99
2016-08-01T05:28:34.324Z,99.99
2016-08-01T05:29:34.843Z,99.99
2016-08-01T05:30:34.225Z,99.99
2016-08-01T05:31:34.765Z,99.99
2016-08-01T05:32:34.238Z,99.99
2016-08-01T05:33:34.415Z,99.99
2016-08-01T05:34:34.242Z,99.99
2016-08-01T05:35:34.262Z,99.99
2016-08-01T05:36:34.276Z,99.99
2016-08-01T05:37:34.263Z,99.99
2016-08-01T05:38:34.273Z,99.99
2016-08-01T05:39:34.279Z,99.99
2016-08-01T05:40:34.285Z,99.99
2016-08-01T05:41:34.292Z,99.99
2016-08-01T05:42:34.300Z,99.99
2016-08-01T05:43:34.303Z,99.99
2016-08-01T05:44:34.310Z,99.99
2016-08-01T05:45:34.325Z,97.23
2016-08-01T05:46:34.326Z,99.99
2016-08-01T05:47:34.334Z,99.99
2016-08-01T05:48:34.343Z,99.99
2016-08-01T05:49:34.347Z,99.99
2016-08-01T05:50:34.353Z,99.99
2016-08-01T05:51:34.360Z,99.99
2016-08-01T05:52:34.372Z,99.99
2016-08-01T05:53:34.378Z,99.99
2016-08-01T05:54:34.394Z,99.99
2016-08-01T05:55:34.395Z,99.99
2016-08-01T05:56:34.401Z,99.99
2016-08-01T05:57:34.417Z,99.75
2016-08-01T05:58:49.340Z,97.91
2016-08-01T06:00:35.189Z,98.35
2016-08-01T06:01:34.996Z,99.6
2016-08-01T06:02:34.452Z,99.07
2016-08-01T06:03:34.464Z,99.37
2016-08-01T06:04:34.481Z,99.6
2016-08-01T06:05:34.486Z,99.99
2016-08-01T06:06:34.493Z,99.85
2016-08-01T06:07:35.350Z,99.22
2016-08-01T06:08:34.712Z,98.05
2016-08-01T06:09:35.538Z,98.34
2016-08-01T06:10:35.329Z,96.3
2016-08-01T06:11:34.991Z,97.66
2016-08-01T06:12:34.552Z,97.71
2016-08-01T06:13:34.560Z,99.99
2016-08-01T06:14:34.570Z,99.7
2016-08-01T06:15:34.581Z,99.9
2016-08-01T06:16:34.590Z,99.99
2016-08-01T06:17:34.595Z,99.32
2016-08-01T06:18:34.615Z,99.99
2016-08-01T06:20:34.628Z,99.99
2016-08-01T06:21:34.641Z,99.32
2016-08-01T06:22:34.662Z,99.41
2016-08-01T06:23:34.659Z,99.32
2016-08-01T06:24:35.365Z,99.99
2016-08-01T06:25:34.689Z,99.46
2016-08-01T06:26:34.707Z,98.68
2016-08-01T06:27:34.705Z,99.99
2016-08-01T06:28:34.728Z,99.99
2016-08-01T06:29:34.729Z,99.99
2016-08-01T06:30:34.739Z,99.99
2016-08-01T06:31:34.755Z,99.99
2016-08-01T06:32:34.763Z,99.99
2016-08-01T06:33:34.776Z,99.99
2016-08-01T06:35:34.804Z,99.99
2016-08-01T06:36:34.817Z,99.99
2016-08-01T06:37:35.602Z,99.99
2016-08-01T06:38:34.841Z,99.99
2016-08-01T06:39:34.853Z,99.99
2016-08-01T06:40:34.870Z,99.99
2016-08-01T06:41:34.882Z,99.99
2016-08-01T06:42:34.898Z,99.99
2016-08-01T06:43:34.910Z,98.87
2016-08-01T06:45:36.534Z,99.7
2016-08-01T06:46:34.950Z,99.21
2016-08-01T06:47:34.968Z,98.43
2016-08-01T06:48:34.983Z,97.75
2016-08-01T06:50:35.008Z,99.02
2016-08-01T06:51:35.020Z,99.6
2016-08-01T06:52:35.039Z,99.7
2016-08-01T06:53:35.051Z,99.6
2016-08-01T06:54:35.087Z,99.99
2016-08-01T06:55:35.082Z,99.99
2016-08-01T06:56:35.098Z,99.99
2016-08-01T06:57:35.114Z,99.99
2016-08-01T06:58:35.130Z,99.99
2016-08-01T06:59:35.145Z,99.99
2016-08-01T07:00:35.160Z,99.99
2016-08-01T07:01:35.170Z,99.9
2016-08-01T07:02:35.186Z,99.21
2016-08-01T07:03:35.198Z,97.06
2016-08-01T07:04:35.211Z,96.13
2016-08-01T07:05:35.230Z,95.5
2016-08-01T07:06:35.244Z,96.23
2016-08-01T07:07:35.257Z,97.75
2016-08-01T07:08:35.272Z,98.82
2016-08-01T07:09:35.281Z,98.38
2016-08-01T07:10:35.296Z,99.95
2016-08-01T07:11:35.314Z,99.99
2016-08-01T07:12:35.344Z,99.99
2016-08-01T07:13:36.032Z,99.99
2016-08-01T07:14:35.349Z,99.99
2016-08-01T07:15:35.368Z,99.99
2016-08-01T07:16:50.298Z,99.8
2016-08-01T07:18:35.555Z,96.09
2016-08-01T07:19:35.822Z,95.21
2016-08-01T07:20:35.433Z,94.68
2016-08-01T07:21:35.442Z,95.17
2016-08-01T07:22:35.455Z,96.3
2016-08-01T07:23:35.465Z,96.83
2016-08-01T07:24:35.474Z,97.66
2016-08-01T07:25:36.288Z,99.12
2016-08-01T07:27:35.909Z,99.99
2016-08-01T07:28:36.369Z,99.99
2016-08-01T07:29:36.032Z,99.99
2016-08-01T07:30:35.536Z,99.99
2016-08-01T07:31:36.000Z,99.99
2016-08-01T07:32:35.563Z,99.99
2016-08-01T07:33:35.571Z,99.99
2016-08-01T07:34:35.580Z,99.99
2016-08-01T07:35:35.594Z,99.99
2016-08-01T07:36:35.597Z,99.99
2016-08-01T07:37:35.615Z,99.99
2016-08-01T07:38:35.625Z,99.99
2016-08-01T07:39:35.634Z,99.99
2016-08-01T07:40:35.646Z,99.99
2016-08-01T07:41:35.660Z,99.99
2016-08-01T07:42:35.666Z,99.99
2016-08-01T07:43:35.684Z,98.68
2016-08-01T07:44:35.691Z,99.12
2016-08-01T07:45:35.706Z,99.41
2016-08-01T07:46:35.713Z,99.99
2016-08-01T07:47:35.726Z,99.99
2016-08-01T07:48:35.734Z,99.99
2016-08-01T07:49:35.746Z,99.99
2016-08-01T07:50:35.765Z,99.99
2016-08-01T07:51:35.770Z,99.99
2016-08-01T07:52:35.778Z,99.99
2016-08-01T07:53:36.693Z,99.99
2016-08-01T07:54:37.142Z,99.99
2016-08-01T07:55:36.103Z,99.99
2016-08-01T07:56:35.830Z,99.99
2016-08-01T07:57:35.836Z,99.99
2016-08-01T07:58:35.842Z,99.99
2016-08-01T07:59:35.857Z,99.99
2016-08-01T08:00:35.867Z,99.99
2016-08-01T08:01:35.878Z,99.99
2016-08-01T08:02:37.389Z,99.99
2016-08-01T08:03:36.419Z,99.99
2016-08-01T08:04:35.913Z,99.99
2016-08-01T08:05:35.925Z,99.99
2016-08-01T08:06:36.378Z,99.99
2016-08-01T08:07:35.950Z,99.99
2016-08-01T08:08:36.345Z,99.99
2016-08-01T08:09:35.978Z,99.99
2016-08-01T08:10:35.990Z,99.99
2016-08-01T08:11:36.004Z,99.99
2016-08-01T08:12:36.021Z,99.99
2016-08-01T08:13:36.031Z,99.99
2016-08-01T08:14:36.042Z,98.68
2016-08-01T08:15:36.057Z,96.63
2016-08-01T08:16:36.069Z,96.53
2016-08-01T08:17:36.081Z,97.17
2016-08-01T08:18:36.086Z,98.29
2016-08-01T08:19:36.096Z,99.12
2016-08-01T08:20:36.115Z,99.22
2016-08-01T08:21:36.134Z,99.99
2016-08-01T08:22:36.136Z,99.99
2016-08-01T08:23:36.147Z,99.99
2016-08-01T08:24:36.152Z,99.99
2016-08-01T08:25:36.168Z,99.99
2016-08-01T08:26:36.178Z,99.99
2016-08-01T08:27:36.186Z,99.99
2016-08-01T08:28:36.202Z,99.99
2016-08-01T08:29:36.228Z,99.99
2016-08-01T08:30:36.222Z,99.99
2016-08-01T08:31:36.238Z,99.99
2016-08-01T08:32:36.250Z,99.99
2016-08-01T08:33:36.259Z,99.99
2016-08-01T08:34:51.191Z,99.99
2016-08-01T08:35:36.285Z,99.99
2016-08-01T08:36:36.294Z,99.99
2016-08-01T08:37:36.305Z,99.99
2016-08-01T08:38:36.723Z,99.99
2016-08-01T08:39:36.330Z,98.19
2016-08-01T08:40:36.343Z,98.34
2016-08-01T08:41:36.355Z,98.44
2016-08-01T08:42:36.368Z,99.51
2016-08-01T08:43:36.383Z,99.99
2016-08-01T08:44:36.391Z,99.99
2016-08-01T08:45:36.401Z,99.99
2016-08-01T08:46:36.715Z,99.99
2016-08-01T08:47:36.423Z,99.99
2016-08-01T08:48:36.433Z,99.99
2016-08-01T08:49:36.449Z,99.99
2016-08-01T08:50:36.452Z,99.99
2016-08-01T08:51:36.468Z,99.99
2016-08-01T08:52:36.477Z,99.99
2016-08-01T08:53:36.485Z,99.99
2016-08-01T08:54:36.498Z,99.99
2016-08-01T08:55:36.606Z,99.99
2016-08-01T08:56:36.511Z,99.75
2016-08-01T08:57:36.523Z,99.99
2016-08-01T08:58:36.535Z,99.99
2016-08-01T08:59:36.544Z,99.99
2016-08-01T09:00:36.551Z,99.99
2016-08-01T09:01:36.563Z,99.99
2016-08-01T09:02:36.568Z,99.99
2016-08-01T09:03:36.571Z,99.99
2016-08-01T09:04:36.581Z,99.99
2016-08-01T09:05:36.590Z,99.99
2016-08-01T09:06:36.602Z,99.99
2016-08-01T09:07:36.608Z,99.99
2016-08-01T09:08:36.612Z,99.99
2016-08-01T09:09:36.621Z,99.99
2016-08-01T09:10:36.628Z,99.99
2016-08-01T09:11:37.693Z,99.99
2016-08-01T09:12:36.640Z,99.99
2016-08-01T09:13:36.652Z,99.99
2016-08-01T09:14:36.656Z,99.99
2016-08-01T09:15:37.170Z,99.99
2016-08-01T09:16:37.330Z,99.99
2016-08-01T09:17:37.062Z,99.99
2016-08-01T09:18:36.681Z,99.99
2016-08-01T09:19:36.794Z,99.99
2016-08-01T09:20:37.619Z,99.99
2016-08-01T09:21:37.530Z,99.99
2016-08-01T09:22:37.670Z,99.99
2016-08-01T09:23:37.733Z,99.99
2016-08-01T09:24:37.412Z,99.99
2016-08-01T09:25:36.727Z,99.99
2016-08-01T09:26:36.733Z,99.99
2016-08-01T09:27:36.739Z,99.99
2016-08-01T09:28:36.740Z,99.99
2016-08-01T09:29:36.748Z,99.99
2016-08-01T09:30:36.752Z,99.99
2016-08-01T09:31:36.759Z,99.99
2016-08-01T09:32:36.761Z,99.99
2016-08-01T09:33:36.769Z,99.99
2016-08-01T09:34:36.772Z,99.99
2016-08-01T09:35:36.776Z,99.99
2016-08-01T09:36:36.784Z,99.99
2016-08-01T09:37:36.788Z,99.99
2016-08-01T09:38:36.797Z,99.99
2016-08-01T09:39:36.800Z,99.99
2016-08-01T09:40:36.803Z,99.99
2016-08-01T09:41:36.805Z,99.99
2016-08-01T09:42:36.811Z,99.99
2016-08-01T09:43:36.815Z,99.99
2016-08-01T09:44:36.821Z,99.99
2016-08-01T09:45:36.825Z,99.99
2016-08-01T09:46:36.828Z,99.99
2016-08-01T09:47:36.837Z,99.99
2016-08-01T09:48:36.842Z,99.99
2016-08-01T09:49:36.839Z,99.99
2016-08-01T09:50:36.848Z,99.99
2016-08-01T09:51:36.856Z,99.99
2016-08-01T09:52:36.860Z,99.99
2016-08-01T09:53:36.863Z,99.99
2016-08-01T09:54:37.016Z,99.99
2016-08-01T09:55:36.973Z,99.99
2016-08-01T09:56:37.278Z,99.99
2016-08-01T09:57:37.428Z,99.99
2016-08-01T09:58:37.381Z,99.99
2016-08-01T09:59:36.886Z,99.99
2016-08-01T10:00:36.892Z,99.99
2016-08-01T10:01:36.897Z,99.99
2016-08-01T10:02:36.899Z,99.99
2016-08-01T10:03:37.102Z,99.99
2016-08-01T10:04:37.554Z,99.99
2016-08-01T10:05:36.915Z,99.99
2016-08-01T10:06:36.918Z,99.99
2016-08-01T10:07:36.930Z,99.99
2016-08-01T10:08:36.925Z,99.99
2016-08-01T10:09:36.930Z,99.99
2016-08-01T10:10:36.934Z,99.99
2016-08-01T10:11:36.940Z,99.99
2016-08-01T10:12:36.938Z,99.99
2016-08-01T10:13:36.944Z,99.99
2016-08-01T10:14:36.957Z,99.99
2016-08-01T10:15:36.957Z,99.99
2016-08-01T10:16:36.961Z,99.99
2016-08-01T10:17:36.967Z,99.99
2016-08-01T10:18:36.972Z,99.99
2016-08-01T10:19:36.971Z,99.99
2016-08-01T10:20:36.972Z,99.99
2016-08-01T10:21:36.984Z,99.99
2016-08-01T10:22:36.986Z,99.99
2016-08-01T10:23:36.993Z,99.99
2016-08-01T10:24:36.995Z,99.99
2016-08-01T10:25:37.002Z,99.99
2016-08-01T10:26:37.010Z,99.99
2016-08-01T10:27:37.010Z,99.99
2016-08-01T10:28:37.012Z,99.99
2016-08-01T10:29:37.684Z,99.99
2016-08-01T10:30:38.223Z,99.99
2016-08-01T10:31:37.026Z,99.99
2016-08-01T10:32:37.203Z,99.99
2016-08-01T10:33:37.034Z,99.99
2016-08-01T10:34:37.037Z,99.99
2016-08-01T10:35:37.039Z,99.99
2016-08-01T10:36:37.044Z,99.99
2016-08-01T10:37:37.049Z,99.99
2016-08-01T10:38:37.056Z,99.99
2016-08-01T10:39:38.583Z,99.99
2016-08-01T10:40:38.004Z,99.99
2016-08-01T10:41:37.068Z,99.99
2016-08-01T10:42:37.070Z,99.99
2016-08-01T10:43:37.078Z,99.99
2016-08-01T10:44:37.278Z,99.99
2016-08-01T10:45:37.086Z,99.99
2016-08-01T10:46:37.158Z,99.99
2016-08-01T10:47:37.091Z,99.99
2016-08-01T10:48:37.099Z,99.99
2016-08-01T10:49:37.101Z,99.99
2016-08-01T10:51:37.110Z,99.99
2016-08-01T10:52:37.117Z,99.99
2016-08-01T10:53:37.116Z,99.99
2016-08-01T10:54:37.126Z,99.99
2016-08-01T10:55:37.229Z,99.99
2016-08-01T10:56:37.132Z,99.99
2016-08-01T10:57:37.149Z,99.99
2016-08-01T10:58:37.138Z,99.99
2016-08-01T10:59:37.150Z,99.99
2016-08-01T11:00:37.149Z,99.99
2016-08-01T11:01:37.155Z,99.99
2016-08-01T11:02:37.155Z,99.99
2016-08-01T11:03:37.160Z,99.99
2016-08-01T11:04:37.174Z,99.99
2016-08-01T11:06:37.181Z,99.99
2016-08-01T11:07:37.183Z,99.99
2016-08-01T11:08:37.185Z,99.99
2016-08-01T11:09:37.193Z,99.99
2016-08-01T11:10:37.195Z,99.99
2016-08-01T11:11:38.203Z,99.99
2016-08-01T11:12:37.208Z,99.99
2016-08-01T11:13:37.210Z,99.99
2016-08-01T11:14:37.216Z,99.99
2016-08-01T11:15:37.217Z,99.99
2016-08-01T11:16:37.276Z,99.99
2016-08-01T11:17:37.232Z,99.99
2016-08-01T11:18:37.428Z,99.99
2016-08-01T11:19:37.233Z,99.99
2016-08-01T11:21:37.693Z,99.99
2016-08-01T11:22:37.245Z,99.99
2016-08-01T11:23:37.256Z,99.99
2016-08-01T11:24:37.259Z,99.99
2016-08-01T11:25:37.258Z,99.99
2016-08-01T11:26:37.258Z,99.99
2016-08-01T11:27:37.518Z,99.99
2016-08-01T11:28:37.268Z,99.99
2016-08-01T11:29:37.270Z,99.99
2016-08-01T11:30:37.280Z,99.99
2016-08-01T11:31:37.297Z,99.99
2016-08-01T11:32:37.285Z,99.99
2016-08-01T11:33:37.291Z,99.99
2016-08-01T11:34:37.290Z,99.99
2016-08-01T11:36:37.302Z,99.99
2016-08-01T11:37:37.303Z,99.99
2016-08-01T11:38:37.309Z,99.99
2016-08-01T11:39:37.308Z,99.99
2016-08-01T11:40:37.314Z,99.99
2016-08-01T11:41:37.320Z,99.99
2016-08-01T11:42:37.326Z,99.99
2016-08-01T11:43:37.328Z,99.99
2016-08-01T11:44:37.329Z,99.99
2016-08-01T11:45:37.338Z,99.99
2016-08-01T11:46:37.336Z,99.99
2016-08-01T11:47:37.342Z,99.99
2016-08-01T11:48:38.865Z,99.99
2016-08-01T11:49:38.867Z,99.99
2016-08-01T11:50:38.421Z,99.99
2016-08-01T11:51:38.524Z,99.99
2016-08-01T11:52:37.365Z,99.99
2016-08-01T11:53:37.808Z,99.99
2016-08-01T11:54:37.374Z,99.99
2016-08-01T11:55:37.425Z,99.99
2016-08-01T11:56:37.386Z,99.99
2016-08-01T11:57:37.819Z,99.99
2016-08-01T11:58:38.183Z,99.99
2016-08-01T11:59:38.234Z,99.99
2016-08-01T12:00:37.406Z,99.99
2016-08-01T12:01:37.407Z,99.99
2016-08-01T12:02:37.421Z,99.99
2016-08-01T12:03:37.645Z,99.99
2016-08-01T12:04:37.428Z,99.99
2016-08-01T12:05:37.432Z,99.99
2016-08-01T12:06:37.444Z,99.99
2016-08-01T12:07:37.441Z,99.99
2016-08-01T12:08:37.454Z,99.99
2016-08-01T12:09:37.456Z,99.99
2016-08-01T12:10:37.460Z,99.99
2016-08-01T12:11:37.465Z,99.99
2016-08-01T12:12:37.471Z,99.99
2016-08-01T12:13:37.480Z,99.99
2016-08-01T12:14:37.488Z,99.99
2016-08-01T12:15:37.496Z,99.99
2016-08-01T12:16:37.497Z,99.99
2016-08-01T12:17:37.506Z,99.99
2016-08-01T12:18:37.509Z,99.99
2016-08-01T12:19:37.521Z,99.99
2016-08-01T12:20:37.527Z,99.99
2016-08-01T12:21:37.531Z,99.99
2016-08-01T12:22:37.534Z,99.99
2016-08-01T12:23:37.541Z,99.99
2016-08-01T12:24:37.548Z,99.99
2016-08-01T12:25:37.558Z,99.99
2016-08-01T12:26:37.561Z,99.99
2016-08-01T12:27:38.261Z,99.99
2016-08-01T12:28:37.578Z,99.99
2016-08-01T12:29:52.503Z,99.99
2016-08-01T12:30:37.991Z,99.99
2016-08-01T12:31:37.597Z,99.99
2016-08-01T12:32:37.606Z,99.99
2016-08-01T12:33:37.611Z,99.99
2016-08-01T12:34:37.616Z,99.99
2016-08-01T12:35:37.622Z,99.99
2016-08-01T12:36:37.637Z,99.99
2016-08-01T12:37:37.634Z,99.99
2016-08-01T12:38:38.544Z,99.99
2016-08-01T12:39:38.154Z,99.99
2016-08-01T12:40:37.663Z,99.99
2016-08-01T12:41:38.012Z,99.99
2016-08-01T12:42:37.674Z,99.99
2016-08-01T12:43:37.681Z,99.99
2016-08-01T12:44:37.682Z,99.99
2016-08-01T12:45:37.694Z,99.99
2016-08-01T12:46:37.700Z,99.99
2016-08-01T12:47:37.710Z,99.99
2016-08-01T12:48:37.714Z,99.99
2016-08-01T12:49:37.720Z,99.99
2016-08-01T12:50:37.724Z,99.99
2016-08-01T12:51:37.735Z,99.99
2016-08-01T12:52:37.745Z,99.99
2016-08-01T12:53:37.746Z,99.99
2016-08-01T12:54:37.754Z,99.99
2016-08-01T12:55:37.861Z,99.99
2016-08-01T12:56:37.763Z,99.99
2016-08-01T12:57:37.783Z,99.99
2016-08-01T12:58:37.780Z,99.99
2016-08-01T12:59:37.783Z,99.99
2016-08-01T13:00:37.789Z,99.99
2016-08-01T13:01:37.797Z,99.99
2016-08-01T13:02:37.806Z,99.99
2016-08-01T13:03:37.809Z,99.99
2016-08-01T13:04:37.818Z,99.99
2016-08-01T13:05:37.823Z,99.99
2016-08-01T13:06:38.944Z,99.99
2016-08-01T13:07:39.168Z,99.99
2016-08-01T13:08:37.840Z,99.99
2016-08-01T13:09:37.844Z,99.75
2016-08-01T13:10:37.853Z,98.97
2016-08-01T13:11:37.860Z,98.44
2016-08-01T13:12:37.865Z,98.44